Portada
METAR-TAF:

METAR-TAF

Aeroports :

Manta, Equador

latitud: 00-57S, longitud: 080-41W, altitud: 13 m

Observació

L'informe es va fer fa 56 minuts, a les 01:00 UTC
Vent 7 kt del Sud
Temperatura 24°C
Humitat 83%
Pressió 1012 hPa
Visibilitat 10 km o més
Cel ennuvolat a una alçada de 2600 ft

METAR: SEMT 250100Z 19007KT 9999 BKN026 24/21 Q1012 RMK A2991

Hora: 20:56 (01:56 UTC)

Pronòstic

L'informe es va fer fa 3 hores i 16 minuts, a les 22:40 UTC
Pronòstic vàlid del 25 a les 00 UTC al 25 a les 24 UTC
Vent 5 kt del Sud/Sud-Oest
Visibilitat 10 km o més
Núvols disperses a una alçada de 2000 ft
Cel ennuvolat a una alçada de 10000 ft
Evolucionant progressivament
l' 25 a les 06 UTC al 25 a les 07 UTC
Cel ennuvolat a una alçada de 2000 ft
Evolucionant progressivament
l' 25 a les 16 UTC al 25 a les 17 UTC
Vent 10 kt del Sud-Oest

TAF: SEMT 242240Z 2500/2524 21005KT 9999 SCT020 BKN100 BECMG 2506/2507 BKN020 BECMG 2516/2517 22010KT TX28/2520Z TN23/2510Z

Observacions i pronòstics meteorològics de més de 4000 aeroports (METAR i TAF).

Les estacions disponibles són els punts grocs i vermells al mapa.

Posi el ratolí al punt desitjat per veure el nom de l'estació.

Feu clic per veure les observacions i els pronòstics meteorològics.

Per canviar el mapa: feu clic els botons verds amb una creu de color negre per apropar; al botó verd amb un guió per allunyar la imatge; o en les fletxes verdes per a mapes adjacents.


METAR-TAF: